createdAt,value
2018-02-19T00:00:19.583Z,43.00
2018-02-19T00:01:19.532Z,42.70
2018-02-19T00:02:19.483Z,40.10
2018-02-19T00:03:19.435Z,40.60
2018-02-19T00:04:19.390Z,39.60
2018-02-19T00:05:19.378Z,42.50
2018-02-19T00:06:19.300Z,40.10
2018-02-19T00:07:19.260Z,41.40
2018-02-19T00:08:19.211Z,42.20
2018-02-19T00:09:19.167Z,41.50
2018-02-19T00:10:19.122Z,43.60
2018-02-19T00:11:19.109Z,39.20
2018-02-19T00:12:19.028Z,41.60
2018-02-19T00:13:18.990Z,43.60
2018-02-19T00:14:18.945Z,43.10
2018-02-19T00:15:18.898Z,42.20
2018-02-19T00:16:18.853Z,41.00
2018-02-19T00:17:18.826Z,42.20
2018-02-19T00:18:18.765Z,42.80
2018-02-19T00:19:18.712Z,41.70
2018-02-19T00:20:18.665Z,39.70
2018-02-19T00:21:18.628Z,44.50
2018-02-19T00:22:18.584Z,42.10
2018-02-19T00:23:18.557Z,41.20
2018-02-19T00:24:18.488Z,42.50
2018-02-19T00:25:18.446Z,44.10
2018-02-19T00:26:18.393Z,45.30
2018-02-19T00:27:18.350Z,44.30
2018-02-19T00:28:18.308Z,42.50
2018-02-19T00:29:18.289Z,40.40
2018-02-19T00:30:18.209Z,42.40
2018-02-19T00:31:18.174Z,41.40
2018-02-19T00:32:18.118Z,47.90
2018-02-19T00:33:18.075Z,41.80
2018-02-19T00:34:18.034Z,43.50
2018-02-19T00:35:18.017Z,44.30
2018-02-19T00:36:17.950Z,40.40
2018-02-19T00:37:17.894Z,42.10
2018-02-19T00:38:17.854Z,45.80
2018-02-19T00:39:17.802Z,44.40
2018-02-19T00:40:17.773Z,42.80
2018-02-19T00:41:17.750Z,43.20
2018-02-19T00:42:17.673Z,43.40
2018-02-19T00:43:17.627Z,42.50
2018-02-19T00:44:17.584Z,43.20
2018-02-19T00:45:17.531Z,44.50
2018-02-19T00:46:17.497Z,42.60
2018-02-19T00:47:17.471Z,45.60
2018-02-19T00:48:17.395Z,44.70
2018-02-19T00:49:17.375Z,44.10
2018-02-19T00:50:17.301Z,43.30
2018-02-19T00:51:17.265Z,45.10
2018-02-19T00:52:17.214Z,43.70
2018-02-19T00:53:17.202Z,48.30
2018-02-19T00:54:17.119Z,45.20
2018-02-19T00:55:17.082Z,45.30
2018-02-19T00:56:17.037Z,46.50
2018-02-19T00:57:16.991Z,46.10
2018-02-19T00:58:16.945Z,44.10
2018-02-19T00:59:16.921Z,48.00
2018-02-19T01:00:16.853Z,43.70
2018-02-19T01:01:16.803Z,44.70
2018-02-19T01:02:16.758Z,46.40
2018-02-19T01:03:16.715Z,44.90
2018-02-19T01:04:16.664Z,45.30
2018-02-19T01:05:16.648Z,44.90
2018-02-19T01:06:16.579Z,47.70
2018-02-19T01:07:16.536Z,44.30
2018-02-19T01:08:16.482Z,47.90
2018-02-19T01:09:16.439Z,50.00
2018-02-19T01:10:16.401Z,46.50
2018-02-19T01:11:16.376Z,47.70
2018-02-19T01:12:16.302Z,50.60
2018-02-19T01:13:16.265Z,47.40
2018-02-19T01:14:16.222Z,45.30
2018-02-19T01:15:16.174Z,46.10
2018-02-19T01:16:16.126Z,47.50
2018-02-19T01:17:16.105Z,45.10
2018-02-19T01:18:16.030Z,47.60
2018-02-19T01:19:15.986Z,50.30
2018-02-19T01:20:15.946Z,49.40
2018-02-19T01:21:15.895Z,49.80
2018-02-19T01:22:15.866Z,46.60
2018-02-19T01:23:15.835Z,49.60
2018-02-19T01:24:15.763Z,44.80
2018-02-19T01:25:15.710Z,49.60
2018-02-19T01:26:15.673Z,48.70
2018-02-19T01:27:15.629Z,47.90
2018-02-19T01:28:15.575Z,48.80
2018-02-19T01:29:15.563Z,50.00
2018-02-19T01:30:15.484Z,49.80
2018-02-19T01:31:15.449Z,50.00
2018-02-19T01:32:15.400Z,53.10
2018-02-19T01:33:15.401Z,48.20
2018-02-19T01:34:15.305Z,48.90
2018-02-19T01:35:15.289Z,47.20
2018-02-19T01:36:15.213Z,47.80
2018-02-19T01:37:15.177Z,44.40
2018-02-19T01:38:15.125Z,51.00
2018-02-19T01:39:15.079Z,49.70
2018-02-19T01:40:15.041Z,48.90
2018-02-19T01:41:15.019Z,49.80
2018-02-19T01:42:14.940Z,48.20
2018-02-19T01:43:14.894Z,51.20
2018-02-19T01:44:14.855Z,49.60
2018-02-19T01:45:14.801Z,49.60
2018-02-19T01:46:14.755Z,50.40
2018-02-19T01:47:14.739Z,52.20
2018-02-19T01:48:14.673Z,50.70
2018-02-19T01:49:14.628Z,48.30
2018-02-19T01:50:14.582Z,50.70
2018-02-19T01:51:14.538Z,50.80
2018-02-19T01:52:14.492Z,50.40
2018-02-19T01:53:14.470Z,54.00
2018-02-19T01:54:14.401Z,49.80
2018-02-19T01:55:14.347Z,49.60
2018-02-19T01:56:14.303Z,50.90
2018-02-19T01:57:14.253Z,53.80
2018-02-19T01:58:14.234Z,52.00
2018-02-19T01:59:14.162Z,54.10
2018-02-19T02:00:14.124Z,54.40
2018-02-19T02:01:14.072Z,52.50
2018-02-19T02:02:14.034Z,52.00
2018-02-19T02:03:14.004Z,55.50
2018-02-19T02:04:13.940Z,54.20
2018-02-19T02:05:13.891Z,49.30
2018-02-19T02:06:13.849Z,51.80
2018-02-19T02:07:13.802Z,55.20
2018-02-19T02:08:13.773Z,51.40
2018-02-19T02:09:13.710Z,53.30
2018-02-19T02:10:13.672Z,53.50
2018-02-19T02:11:13.623Z,57.90
2018-02-19T02:12:13.573Z,55.10
2018-02-19T02:13:13.553Z,53.80
2018-02-19T02:14:13.486Z,53.70
2018-02-19T02:15:13.434Z,52.90
2018-02-19T02:16:13.392Z,52.00
2018-02-19T02:17:13.351Z,56.40
2018-02-19T02:18:13.300Z,55.30
2018-02-19T02:19:13.278Z,54.10
2018-02-19T02:20:13.212Z,56.00
2018-02-19T02:21:13.173Z,53.70
2018-02-19T02:22:13.115Z,57.20
2018-02-19T02:23:13.064Z,54.40
2018-02-19T02:24:13.019Z,51.60
2018-02-19T02:25:13.010Z,55.60
2018-02-19T02:26:12.933Z,56.50
2018-02-19T02:27:12.887Z,54.80
2018-02-19T02:28:12.843Z,57.00
2018-02-19T02:29:12.792Z,58.70
2018-02-19T02:30:12.745Z,56.30
2018-02-19T02:31:12.737Z,55.80
2018-02-19T02:32:12.654Z,55.60
2018-02-19T02:33:12.616Z,59.30
2018-02-19T02:34:12.564Z,56.70
2018-02-19T02:35:12.526Z,57.80
2018-02-19T02:36:12.470Z,57.50
2018-02-19T02:37:12.457Z,55.50
2018-02-19T02:38:12.382Z,56.00
2018-02-19T02:39:12.338Z,58.90
2018-02-19T02:40:12.293Z,58.50
2018-02-19T02:41:12.258Z,61.70
2018-02-19T02:42:12.204Z,58.00
2018-02-19T02:43:12.181Z,57.20
2018-02-19T02:44:12.116Z,57.90
2018-02-19T02:45:12.060Z,56.50
2018-02-19T02:46:12.018Z,57.10
2018-02-19T02:47:11.975Z,62.50
2018-02-19T02:48:11.929Z,59.20
2018-02-19T02:49:11.905Z,59.30
2018-02-19T02:50:11.833Z,57.70
2018-02-19T02:51:11.789Z,59.20
2018-02-19T02:52:11.740Z,57.10
2018-02-19T02:53:11.713Z,61.70
2018-02-19T02:54:11.678Z,58.60
2018-02-19T02:55:11.608Z,59.60
2018-02-19T02:56:11.634Z,61.30
2018-02-19T02:57:11.512Z,59.30
2018-02-19T02:58:11.464Z,57.00
2018-02-19T02:59:11.419Z,57.40
2018-02-19T03:00:11.400Z,58.10
2018-02-19T03:01:11.334Z,56.80
2018-02-19T03:02:11.288Z,57.60
2018-02-19T03:03:11.241Z,60.30
2018-02-19T03:04:11.195Z,59.90
2018-02-19T03:05:11.178Z,58.70
2018-02-19T03:06:11.098Z,65.90
2018-02-19T03:07:11.054Z,59.30
2018-02-19T03:08:11.013Z,60.00
2018-02-19T03:09:10.966Z,60.80
2018-02-19T03:10:10.943Z,57.00
2018-02-19T03:11:10.879Z,58.70
2018-02-19T03:12:10.830Z,58.00
2018-02-19T03:13:10.785Z,59.80
2018-02-19T03:14:10.739Z,59.30
2018-02-19T03:15:10.694Z,64.50
2018-02-19T03:16:10.667Z,58.20
2018-02-19T03:17:10.599Z,57.60
2018-02-19T03:18:10.548Z,58.70
2018-02-19T03:19:10.505Z,59.60
2018-02-19T03:20:10.458Z,57.30
2018-02-19T03:21:10.418Z,57.60
2018-02-19T03:22:10.395Z,58.80
2018-02-19T03:23:10.330Z,56.80
2018-02-19T03:24:10.280Z,57.80
2018-02-19T03:25:10.234Z,60.40
2018-02-19T03:26:10.187Z,54.20
2018-02-19T03:27:10.146Z,57.20
2018-02-19T03:28:10.126Z,56.50
2018-02-19T03:29:10.058Z,51.30
2018-02-19T03:30:10.016Z,55.10
2018-02-19T03:31:09.956Z,58.10
2018-02-19T03:32:09.909Z,59.30
2018-02-19T03:33:09.867Z,61.50
2018-02-19T03:34:09.845Z,59.20
2018-02-19T03:35:09.782Z,57.70
2018-02-19T03:36:09.725Z,59.60
2018-02-19T03:37:09.683Z,57.30
2018-02-19T03:38:09.641Z,54.40
2018-02-19T03:39:09.596Z,58.40
2018-02-19T03:40:09.575Z,59.70
2018-02-19T03:41:09.500Z,58.00
2018-02-19T03:42:09.461Z,57.10
2018-02-19T03:43:09.420Z,57.70
2018-02-19T03:44:09.360Z,54.90
2018-02-19T03:45:09.372Z,55.60
2018-02-19T03:46:09.299Z,53.80
2018-02-19T03:47:09.230Z,53.40
2018-02-19T03:48:09.181Z,58.10
2018-02-19T03:49:09.132Z,54.10
2018-02-19T03:50:09.093Z,55.00
2018-02-19T03:51:09.075Z,51.10
2018-02-19T03:52:08.997Z,53.40
2018-02-19T03:53:08.955Z,58.40
2018-02-19T03:54:08.912Z,54.70
2018-02-19T03:55:08.866Z,53.20
2018-02-19T03:56:08.821Z,54.50
2018-02-19T03:57:08.796Z,55.50
2018-02-19T03:58:08.730Z,57.40
2018-02-19T03:59:08.681Z,51.80
2018-02-19T04:00:08.636Z,53.80
2018-02-19T04:01:08.588Z,55.60
2018-02-19T04:02:08.544Z,54.90
2018-02-19T04:03:08.521Z,54.60
2018-02-19T04:04:08.448Z,55.30
2018-02-19T04:05:08.406Z,50.80
2018-02-19T04:06:08.363Z,57.40
2018-02-19T04:07:08.316Z,52.60
2018-02-19T04:08:08.272Z,55.50
2018-02-19T04:09:08.247Z,52.70
2018-02-19T04:10:08.173Z,55.90
2018-02-19T04:11:08.130Z,54.50
2018-02-19T04:12:08.089Z,53.90
2018-02-19T04:13:08.043Z,55.80
2018-02-19T04:14:08.004Z,55.30
2018-02-19T04:15:07.981Z,50.80
2018-02-19T04:16:07.898Z,55.60
2018-02-19T04:17:07.857Z,54.30
2018-02-19T04:18:07.815Z,55.10
2018-02-19T04:19:07.768Z,53.30
2018-02-19T04:20:07.717Z,54.40
2018-02-19T04:21:07.699Z,52.40
2018-02-19T04:22:07.633Z,55.60
2018-02-19T04:23:07.581Z,55.80
2018-02-19T04:24:07.536Z,50.30
2018-02-19T04:25:07.498Z,55.00
2018-02-19T04:26:07.477Z,52.60
2018-02-19T04:27:07.401Z,53.30
2018-02-19T04:28:07.358Z,53.50
2018-02-19T04:29:07.304Z,51.00
2018-02-19T04:30:07.261Z,50.40
2018-02-19T04:31:07.218Z,50.70
2018-02-19T04:32:07.208Z,49.10
2018-02-19T04:33:07.127Z,51.30
2018-02-19T04:34:07.077Z,55.20
2018-02-19T04:35:07.031Z,50.60
2018-02-19T04:36:06.986Z,50.00
2018-02-19T04:37:06.942Z,48.90
2018-02-19T04:38:06.922Z,50.90
2018-02-19T04:39:06.854Z,48.50
2018-02-19T04:40:06.808Z,49.30
2018-02-19T04:41:06.762Z,48.20
2018-02-19T04:42:06.718Z,48.50
2018-02-19T04:43:06.665Z,48.80
2018-02-19T04:44:06.654Z,47.70
2018-02-19T04:45:06.575Z,48.90
2018-02-19T04:46:06.528Z,50.50
2018-02-19T04:47:06.490Z,50.10
2018-02-19T04:48:06.439Z,51.20
2018-02-19T04:49:06.400Z,46.00
2018-02-19T04:50:06.372Z,48.30
2018-02-19T04:51:06.312Z,47.20
2018-02-19T04:52:06.258Z,47.20
2018-02-19T04:53:06.214Z,49.30
2018-02-19T04:54:06.161Z,47.70
2018-02-19T04:55:06.117Z,50.60
2018-02-19T04:56:06.097Z,48.50
2018-02-19T04:57:06.029Z,48.90
2018-02-19T04:58:05.984Z,48.40
2018-02-19T04:59:05.940Z,49.60
2018-02-19T05:00:05.896Z,48.90
2018-02-19T05:01:05.843Z,47.10
2018-02-19T05:02:05.830Z,49.40
2018-02-19T05:03:05.796Z,46.80
2018-02-19T05:04:05.704Z,48.70
2018-02-19T05:05:05.663Z,46.60
2018-02-19T05:06:05.618Z,49.10
2018-02-19T05:07:05.572Z,49.30
2018-02-19T05:08:05.562Z,48.60
2018-02-19T05:09:05.476Z,46.50
2018-02-19T05:10:05.430Z,47.00
2018-02-19T05:11:05.392Z,46.30
2018-02-19T05:12:05.340Z,46.60
2018-02-19T05:13:05.295Z,47.90
2018-02-19T05:14:05.278Z,46.00
2018-02-19T05:15:05.205Z,45.50
2018-02-19T05:16:05.157Z,47.30
2018-02-19T05:17:05.116Z,44.80
2018-02-19T05:18:05.077Z,45.30
2018-02-19T05:19:05.022Z,48.50
2018-02-19T05:20:05.012Z,43.70
2018-02-19T05:21:04.942Z,44.00
2018-02-19T05:22:04.893Z,46.20
2018-02-19T05:23:04.847Z,43.40
2018-02-19T05:24:04.800Z,45.50
2018-02-19T05:25:04.749Z,44.10
2018-02-19T05:26:04.733Z,44.70
2018-02-19T05:27:04.664Z,44.90
2018-02-19T05:28:04.616Z,43.40
2018-02-19T05:29:04.609Z,43.80
2018-02-19T05:30:04.550Z,43.20
2018-02-19T05:31:04.469Z,44.10
2018-02-19T05:32:04.455Z,42.20
2018-02-19T05:33:04.382Z,44.70
2018-02-19T05:34:04.335Z,44.40
2018-02-19T05:35:04.293Z,43.20
2018-02-19T05:36:04.250Z,43.20
2018-02-19T05:37:04.198Z,45.20
2018-02-19T05:38:04.181Z,43.40
2018-02-19T05:39:04.113Z,44.90
2018-02-19T05:40:04.081Z,43.40
2018-02-19T05:41:04.024Z,42.60
2018-02-19T05:42:03.980Z,45.50
2018-02-19T05:43:03.925Z,44.70
2018-02-19T05:44:03.916Z,43.20
2018-02-19T05:45:03.848Z,42.30
2018-02-19T05:46:03.790Z,42.30
2018-02-19T05:47:03.746Z,41.70
2018-02-19T05:48:03.704Z,43.80
2018-02-19T05:49:03.666Z,41.70
2018-02-19T05:50:03.632Z,42.50
2018-02-19T05:51:03.564Z,41.20
2018-02-19T05:52:03.524Z,42.00
2018-02-19T05:53:03.480Z,41.50
2018-02-19T05:54:03.428Z,43.60
2018-02-19T05:55:03.415Z,41.60
2018-02-19T05:56:03.341Z,41.80
2018-02-19T05:57:03.304Z,42.30
2018-02-19T05:58:03.245Z,45.30
2018-02-19T05:59:03.209Z,42.70
2018-02-19T06:00:03.159Z,42.60
2018-02-19T06:01:03.144Z,40.10
2018-02-19T06:02:03.070Z,41.10
2018-02-19T06:03:03.018Z,41.20
2018-02-19T06:04:02.973Z,43.50
2018-02-19T06:05:02.928Z,41.90
2018-02-19T06:06:02.887Z,40.40
2018-02-19T06:07:02.864Z,38.70
2018-02-19T06:08:02.792Z,40.30
2018-02-19T06:09:02.796Z,39.30
2018-02-19T06:10:02.708Z,40.80
2018-02-19T06:11:02.671Z,39.60
2018-02-19T06:12:02.623Z,40.40
2018-02-19T06:13:02.598Z,38.20
2018-02-19T06:14:02.521Z,40.50
2018-02-19T06:15:02.478Z,41.40
2018-02-19T06:16:02.427Z,39.80
2018-02-19T06:17:02.388Z,38.80
2018-02-19T06:18:02.354Z,38.90
2018-02-19T06:19:02.324Z,40.00
2018-02-19T06:20:02.245Z,42.50
2018-02-19T06:21:02.198Z,37.50
2018-02-19T06:22:02.154Z,40.40
2018-02-19T06:23:02.108Z,39.90
2018-02-19T06:24:02.070Z,39.70
2018-02-19T06:25:02.041Z,40.30
2018-02-19T06:26:01.983Z,40.70
2018-02-19T06:27:01.931Z,39.40
2018-02-19T06:28:01.892Z,40.50
2018-02-19T06:29:01.839Z,42.40
2018-02-19T06:30:01.796Z,38.80
2018-02-19T06:31:01.779Z,38.90
2018-02-19T06:32:01.708Z,40.90
2018-02-19T06:33:01.667Z,40.10
2018-02-19T06:34:01.615Z,41.30
2018-02-19T06:35:01.562Z,41.00
2018-02-19T06:36:01.519Z,37.10
2018-02-19T06:37:01.499Z,37.90
2018-02-19T06:38:01.425Z,41.20
2018-02-19T06:39:01.379Z,40.30
2018-02-19T06:40:01.336Z,38.70
2018-02-19T06:41:01.290Z,39.50
2018-02-19T06:42:01.251Z,39.00
2018-02-19T06:43:01.234Z,39.60
2018-02-19T06:44:01.158Z,40.40
2018-02-19T06:45:01.110Z,37.00
2018-02-19T06:46:01.068Z,38.60
2018-02-19T06:47:01.024Z,40.70
2018-02-19T06:48:00.972Z,37.70
2018-02-19T06:49:00.954Z,38.20
2018-02-19T06:50:00.882Z,38.10
2018-02-19T06:51:00.847Z,38.60
2018-02-19T06:52:00.825Z,36.70
2018-02-19T06:53:00.751Z,39.80
2018-02-19T06:54:00.709Z,41.00
2018-02-19T06:55:00.678Z,38.30
2018-02-19T06:56:00.615Z,40.80
2018-02-19T06:57:00.568Z,36.40
2018-02-19T06:58:00.517Z,37.40
2018-02-19T06:59:00.474Z,39.40
2018-02-19T07:00:00.428Z,40.20
2018-02-19T07:01:00.413Z,38.50
2018-02-19T07:02:00.339Z,37.80
2018-02-19T07:03:00.291Z,39.70
2018-02-19T07:04:00.247Z,39.40
2018-02-19T07:05:00.215Z,38.90
2018-02-19T07:06:00.171Z,41.00
2018-02-19T07:07:00.143Z,38.30
2018-02-19T07:08:00.071Z,39.80
2018-02-19T07:09:00.021Z,38.60
2018-02-19T07:09:59.975Z,38.40
2018-02-19T07:10:59.931Z,40.40
2018-02-19T07:11:59.892Z,39.70
2018-02-19T07:12:59.862Z,38.20
2018-02-19T07:13:59.800Z,38.30
2018-02-19T07:14:59.754Z,37.40
2018-02-19T07:15:59.703Z,37.90
2018-02-19T07:16:59.655Z,39.00
2018-02-19T07:17:59.619Z,36.60
2018-02-19T07:18:59.598Z,38.10
2018-02-19T07:19:59.528Z,35.90
2018-02-19T07:20:59.508Z,37.40
2018-02-19T07:21:59.440Z,39.50
2018-02-19T07:22:59.415Z,39.60
2018-02-19T07:23:59.341Z,37.90
2018-02-19T07:24:59.297Z,38.20
2018-02-19T07:25:59.256Z,38.40
2018-02-19T07:26:59.217Z,38.80
2018-02-19T07:27:59.164Z,37.00
2018-02-19T07:28:59.142Z,40.40
2018-02-19T07:29:59.071Z,36.60
2018-02-19T07:30:59.034Z,37.20
2018-02-19T07:31:59.006Z,36.80
2018-02-19T07:32:58.969Z,36.40
2018-02-19T07:33:58.890Z,36.70
2018-02-19T07:34:58.843Z,39.60
2018-02-19T07:35:58.801Z,36.80
2018-02-19T07:36:58.760Z,38.40
2018-02-19T07:37:58.716Z,37.50
2018-02-19T07:38:58.703Z,37.20
2018-02-19T07:39:58.628Z,36.30
2018-02-19T07:40:58.578Z,35.80
2018-02-19T07:41:58.551Z,36.40
2018-02-19T07:42:58.491Z,36.10
2018-02-19T07:43:58.455Z,35.40
2018-02-19T07:44:58.440Z,38.50
2018-02-19T07:45:58.350Z,37.10
2018-02-19T07:46:58.309Z,37.30
2018-02-19T07:47:58.263Z,37.20
2018-02-19T07:48:58.227Z,37.20
2018-02-19T07:49:58.177Z,37.20
2018-02-19T07:50:58.155Z,34.70
2018-02-19T07:51:58.082Z,35.60
2018-02-19T07:52:58.045Z,36.50
2018-02-19T07:53:57.992Z,36.00
2018-02-19T07:54:57.955Z,35.80
2018-02-19T07:55:57.929Z,35.50
2018-02-19T07:56:57.868Z,36.10
2018-02-19T07:57:57.822Z,36.40
2018-02-19T07:58:57.774Z,37.90
2018-02-19T07:59:57.732Z,37.30
2018-02-19T08:00:57.690Z,38.90
2018-02-19T08:01:57.664Z,39.50
2018-02-19T08:02:57.591Z,37.30
2018-02-19T08:03:57.555Z,34.70
2018-02-19T08:04:57.511Z,36.80
2018-02-19T08:05:57.458Z,37.30
2018-02-19T08:06:57.444Z,37.60
2018-02-19T08:07:57.373Z,37.40
2018-02-19T08:08:57.326Z,37.20
2018-02-19T08:09:57.287Z,39.50
2018-02-19T08:10:57.250Z,35.50
2018-02-19T08:11:57.205Z,37.00
2018-02-19T08:12:57.177Z,38.80
2018-02-19T08:13:57.111Z,35.90
2018-02-19T08:14:57.070Z,37.10
2018-02-19T08:15:57.024Z,34.40
2018-02-19T08:16:56.977Z,35.40
2018-02-19T08:17:56.953Z,36.30
2018-02-19T08:18:56.886Z,36.60
2018-02-19T08:19:56.836Z,36.30
2018-02-19T08:20:56.793Z,35.50
2018-02-19T08:21:56.755Z,36.40
2018-02-19T08:22:56.733Z,38.00
2018-02-19T08:23:56.686Z,35.70
2018-02-19T08:24:56.623Z,35.80
2018-02-19T08:25:56.574Z,38.10
2018-02-19T08:26:56.525Z,37.50
2018-02-19T08:27:56.491Z,36.90
2018-02-19T08:28:56.469Z,35.30
2018-02-19T08:29:56.395Z,34.40
2018-02-19T08:30:56.357Z,37.70
2018-02-19T08:31:56.307Z,33.90
2018-02-19T08:32:56.271Z,35.50
2018-02-19T08:33:56.252Z,34.50
2018-02-19T08:34:56.181Z,34.50
2018-02-19T08:35:56.132Z,34.20
2018-02-19T08:36:56.088Z,32.70
2018-02-19T08:37:56.048Z,32.50
2018-02-19T08:38:56.077Z,32.70
2018-02-19T08:39:55.992Z,33.10
2018-02-19T08:40:55.911Z,34.40
2018-02-19T08:41:55.876Z,33.40
2018-02-19T08:42:55.836Z,36.10
2018-02-19T08:43:55.785Z,34.50
2018-02-19T08:44:55.737Z,33.80
2018-02-19T08:45:55.735Z,33.20
2018-02-19T08:46:55.655Z,34.30
2018-02-19T08:47:55.612Z,34.10
2018-02-19T08:48:55.601Z,34.50
2018-02-19T08:49:55.518Z,35.90
2018-02-19T08:50:55.470Z,35.80
2018-02-19T08:51:55.456Z,33.30
2018-02-19T08:52:55.396Z,34.90
2018-02-19T08:53:55.354Z,33.30
2018-02-19T08:54:55.307Z,33.90
2018-02-19T08:55:55.255Z,34.90
2018-02-19T08:56:55.249Z,34.40
2018-02-19T08:57:55.185Z,33.00
2018-02-19T08:58:55.137Z,35.60
2018-02-19T08:59:55.084Z,31.90
2018-02-19T09:00:55.042Z,34.90
2018-02-19T09:01:55.008Z,34.60
2018-02-19T09:02:54.989Z,32.60
2018-02-19T09:03:54.921Z,32.50
2018-02-19T09:04:54.873Z,33.30
2018-02-19T09:05:54.829Z,31.70
2018-02-19T09:06:54.790Z,33.90
2018-02-19T09:07:54.740Z,33.70
2018-02-19T09:08:54.725Z,33.00
2018-02-19T09:09:54.655Z,33.40
2018-02-19T09:10:54.617Z,32.90
2018-02-19T09:11:54.574Z,33.40
2018-02-19T09:12:54.532Z,31.70
2018-02-19T09:13:54.514Z,32.70
2018-02-19T09:14:54.439Z,32.70
2018-02-19T09:15:54.395Z,32.30
2018-02-19T09:16:54.349Z,32.00
2018-02-19T09:17:54.306Z,32.80
2018-02-19T09:18:54.266Z,32.10
2018-02-19T09:19:54.251Z,32.20
2018-02-19T09:20:54.186Z,30.50
2018-02-19T09:21:54.135Z,33.30
2018-02-19T09:22:54.104Z,31.20
2018-02-19T09:23:54.056Z,30.50
2018-02-19T09:24:54.010Z,31.30
2018-02-19T09:25:53.996Z,31.90
2018-02-19T09:26:53.920Z,30.40
2018-02-19T09:27:53.884Z,31.70
2018-02-19T09:28:53.835Z,32.40
2018-02-19T09:29:53.797Z,32.40
2018-02-19T09:30:53.754Z,30.80
2018-02-19T09:31:53.747Z,31.50
2018-02-19T09:32:53.677Z,31.00
2018-02-19T09:33:53.628Z,32.30
2018-02-19T09:34:53.588Z,31.20
2018-02-19T09:35:53.539Z,31.00
2018-02-19T09:36:53.498Z,31.20
2018-02-19T09:37:53.487Z,31.70
2018-02-19T09:38:53.422Z,32.10
2018-02-19T09:39:53.371Z,30.70
2018-02-19T09:40:53.330Z,30.40
2018-02-19T09:41:53.296Z,29.40
2018-02-19T09:42:53.253Z,29.10
2018-02-19T09:43:53.236Z,31.70
2018-02-19T09:44:53.170Z,30.60
2018-02-19T09:45:53.123Z,31.90
2018-02-19T09:46:53.081Z,29.00
2018-02-19T09:47:53.034Z,29.00
2018-02-19T09:48:52.996Z,31.60
2018-02-19T09:49:52.982Z,31.30
2018-02-19T09:50:52.910Z,30.10
2018-02-19T09:51:52.875Z,32.90
2018-02-19T09:52:52.832Z,30.40
2018-02-19T09:53:52.794Z,30.50
2018-02-19T09:54:52.754Z,31.40
2018-02-19T09:55:52.740Z,29.70
2018-02-19T09:56:52.663Z,29.80
2018-02-19T09:57:52.630Z,30.10
2018-02-19T09:58:52.586Z,33.20
2018-02-19T09:59:52.554Z,28.60
2018-02-19T10:00:52.506Z,30.90
2018-02-19T10:01:52.495Z,29.70
2018-02-19T10:02:52.417Z,32.00
2018-02-19T10:03:52.381Z,29.20
2018-02-19T10:04:52.337Z,30.60
2018-02-19T10:05:52.296Z,32.60
2018-02-19T10:06:52.266Z,30.30
2018-02-19T10:07:52.241Z,30.20
2018-02-19T10:08:52.184Z,31.00
2018-02-19T10:09:52.137Z,30.70
2018-02-19T10:10:52.099Z,28.60
2018-02-19T10:11:52.056Z,28.60
2018-02-19T10:12:52.018Z,30.50
2018-02-19T10:13:52.000Z,31.10
2018-02-19T10:14:51.937Z,29.20
2018-02-19T10:15:51.898Z,29.20
2018-02-19T10:16:51.857Z,29.30
2018-02-19T10:17:51.815Z,29.90
2018-02-19T10:18:51.764Z,31.90
2018-02-19T10:19:51.752Z,32.70
2018-02-19T10:20:51.686Z,29.40
2018-02-19T10:21:51.652Z,28.60
2018-02-19T10:22:51.612Z,30.20
2018-02-19T10:23:51.569Z,29.40
2018-02-19T10:24:51.522Z,30.60
2018-02-19T10:25:51.509Z,31.40
2018-02-19T10:26:51.444Z,30.90
2018-02-19T10:27:51.402Z,33.10
2018-02-19T10:28:51.364Z,30.20
2018-02-19T10:29:51.326Z,30.90
2018-02-19T10:30:51.312Z,30.30
2018-02-19T10:31:51.245Z,28.40
2018-02-19T10:32:51.201Z,29.70
2018-02-19T10:33:51.160Z,29.70
2018-02-19T10:34:51.126Z,29.80
2018-02-19T10:35:51.070Z,29.60
2018-02-19T10:36:51.057Z,31.30
2018-02-19T10:37:51.000Z,30.20
2018-02-19T10:38:50.955Z,33.10
2018-02-19T10:39:50.911Z,30.60
2018-02-19T10:40:50.868Z,28.50
2018-02-19T10:41:50.865Z,30.10
2018-02-19T10:42:50.784Z,31.40
2018-02-19T10:43:50.751Z,30.50
2018-02-19T10:44:50.702Z,31.70
2018-02-19T10:45:50.677Z,29.90
2018-02-19T10:46:50.621Z,32.40
2018-02-19T10:47:50.659Z,31.20
2018-02-19T10:48:50.554Z,30.60
2018-02-19T10:49:50.502Z,30.70
2018-02-19T10:50:50.464Z,31.60
2018-02-19T10:51:50.424Z,33.20
2018-02-19T10:52:50.382Z,31.70
2018-02-19T10:53:50.364Z,31.40
2018-02-19T10:54:50.294Z,31.60
2018-02-19T10:55:50.249Z,31.20
2018-02-19T10:56:50.218Z,29.80
2018-02-19T10:57:50.175Z,32.90
2018-02-19T10:58:50.160Z,32.40
2018-02-19T10:59:50.090Z,32.90
2018-02-19T11:00:50.072Z,30.70
2018-02-19T11:01:50.005Z,33.40
2018-02-19T11:02:49.966Z,31.50
2018-02-19T11:03:49.951Z,32.90
2018-02-19T11:04:49.890Z,31.10
2018-02-19T11:05:49.854Z,33.00
2018-02-19T11:06:49.805Z,30.90
2018-02-19T11:07:49.768Z,30.50
2018-02-19T11:08:49.749Z,29.50
2018-02-19T11:09:49.677Z,30.60
2018-02-19T11:10:49.641Z,31.50
2018-02-19T11:11:49.623Z,30.90
2018-02-19T11:12:49.569Z,31.30
2018-02-19T11:13:49.549Z,32.80
2018-02-19T11:14:49.475Z,32.50
2018-02-19T11:15:49.453Z,31.70
2018-02-19T11:16:49.397Z,30.90
2018-02-19T11:17:49.355Z,32.20
2018-02-19T11:18:49.323Z,29.00
2018-02-19T11:19:49.319Z,29.80
2018-02-19T11:20:49.237Z,30.50
2018-02-19T11:21:49.192Z,29.10
2018-02-19T11:22:49.158Z,30.00
2018-02-19T11:23:49.109Z,31.80
2018-02-19T11:24:49.073Z,33.90
2018-02-19T11:25:49.060Z,31.50
2018-02-19T11:26:48.989Z,29.80
2018-02-19T11:27:48.946Z,30.60
2018-02-19T11:28:48.915Z,29.50
2018-02-19T11:29:48.917Z,31.50
2018-02-19T11:30:48.834Z,30.00
2018-02-19T11:31:48.819Z,33.00
2018-02-19T11:32:48.744Z,32.50
2018-02-19T11:33:48.711Z,30.30
2018-02-19T11:34:48.672Z,30.10
2018-02-19T11:35:48.648Z,30.70
2018-02-19T11:36:48.587Z,31.40
2018-02-19T11:37:48.603Z,33.70
2018-02-19T11:38:55.378Z,32.70
2018-02-19T11:39:48.468Z,30.30
2018-02-19T11:40:48.428Z,30.70
2018-02-19T11:41:48.394Z,29.00
2018-02-19T11:42:48.350Z,31.00
2018-02-19T11:43:48.348Z,31.90
2018-02-19T11:44:48.271Z,30.60
2018-02-19T11:45:48.232Z,31.30
2018-02-19T11:46:48.240Z,31.20
2018-02-19T11:47:48.155Z,29.90
2018-02-19T11:48:48.120Z,30.80
2018-02-19T11:49:48.111Z,30.60
2018-02-19T11:50:48.037Z,29.80
2018-02-19T11:51:47.999Z,30.10
2018-02-19T11:52:47.956Z,29.90
2018-02-19T11:53:47.918Z,31.60
2018-02-19T11:54:47.874Z,29.20
2018-02-19T11:55:47.865Z,31.60
2018-02-19T11:56:47.793Z,31.60
2018-02-19T11:57:47.761Z,31.10
2018-02-19T11:58:47.715Z,30.50
2018-02-19T11:59:47.718Z,33.10
2018-02-19T12:00:47.641Z,31.30
2018-02-19T12:01:47.631Z,31.60
2018-02-19T12:02:47.570Z,30.30
2018-02-19T12:03:47.524Z,29.10
2018-02-19T12:04:47.480Z,28.80
2018-02-19T12:05:47.465Z,31.50
2018-02-19T12:06:47.399Z,28.90
2018-02-19T12:07:47.395Z,29.40
2018-02-19T12:08:47.366Z,29.00
2018-02-19T12:09:47.290Z,28.40
2018-02-19T12:10:47.243Z,30.70
2018-02-19T12:11:47.212Z,28.30
2018-02-19T12:12:47.162Z,31.40
2018-02-19T12:13:47.150Z,29.70
2018-02-19T12:14:47.091Z,29.70
2018-02-19T12:15:47.047Z,30.70
2018-02-19T12:16:47.010Z,29.90
2018-02-19T12:17:46.970Z,29.80
2018-02-19T12:18:46.954Z,28.30
2018-02-19T12:19:46.882Z,30.80
2018-02-19T12:20:46.847Z,30.10
2018-02-19T12:21:46.816Z,30.40
2018-02-19T12:22:46.768Z,29.40
2018-02-19T12:23:46.726Z,29.80
2018-02-19T12:24:46.722Z,29.70
2018-02-19T12:25:46.652Z,30.20
2018-02-19T12:26:46.618Z,30.00
2018-02-19T12:27:46.576Z,30.80
2018-02-19T12:28:46.532Z,31.60
2018-02-19T12:29:46.491Z,30.70
2018-02-19T12:30:46.474Z,31.20
2018-02-19T12:31:46.408Z,29.50
2018-02-19T12:32:46.375Z,30.60
2018-02-19T12:33:46.332Z,29.20
2018-02-19T12:34:46.298Z,28.80
2018-02-19T12:35:46.258Z,30.00
2018-02-19T12:36:46.240Z,30.90
2018-02-19T12:37:46.169Z,29.50
2018-02-19T12:38:46.136Z,28.20
2018-02-19T12:39:46.085Z,32.00
2018-02-19T12:40:46.054Z,31.20
2018-02-19T12:41:46.043Z,31.30
2018-02-19T12:42:45.976Z,28.30
2018-02-19T12:43:45.922Z,28.80
2018-02-19T12:44:45.889Z,27.50
2018-02-19T12:45:45.847Z,31.10
2018-02-19T12:46:45.810Z,30.60
2018-02-19T12:47:45.805Z,29.90
2018-02-19T12:48:45.731Z,31.50
2018-02-19T12:49:45.705Z,30.30
2018-02-19T12:50:45.647Z,30.00
2018-02-19T12:51:45.615Z,30.00